Time;durP1;ratioP1;P1;durP2;ratioP2;P2;SDS_P1;SDS_P2;PMS_P1;PMS_P2;Temp;Humidity;BMP_temperature;BMP_pressure;BME280_temperature;BME280_humidity;BME280_pressure;Samples;Min_cycle;Max_cycle;Signal;HPM_P1;HPM_P2
2022/07/06 00:01:29;;;;;;;6.70;0.90;;;14.50;99.90;;;;;;5091334;27;20494;-87
2022/07/06 00:03:55;;;;;;;1.55;0.43;;;14.50;99.90;;;;;;5091183;28;20042;-86
2022/07/06 00:06:21;;;;;;;2.35;0.52;;;15.30;99.90;;;;;;5126884;28;20057;-86
2022/07/06 00:08:47;;;;;;;5.15;0.57;;;14.50;99.90;;;;;;5108731;28;20471;-86
2022/07/06 00:11:12;;;;;;;2.40;0.50;;;14.50;99.90;;;;;;5075527;28;20054;-86
2022/07/06 00:13:38;;;;;;;1.92;0.50;;;15.20;99.90;;;;;;5098238;28;20061;-86
2022/07/06 00:16:04;;;;;;;3.63;0.68;;;14.40;99.90;;;;;;5095108;28;20620;-87
2022/07/06 00:18:30;;;;;;;1.23;0.50;;;14.40;99.90;;;;;;5113263;28;20047;-87
2022/07/06 00:20:56;;;;;;;2.35;0.57;;;14.60;99.90;;;;;;5097424;28;20027;-86
2022/07/06 00:23:22;;;;;;;2.63;0.60;;;14.40;99.90;;;;;;5108562;28;20044;-87
2022/07/06 00:25:48;;;;;;;1.85;0.50;;;14.40;99.90;;;;;;5090336;28;20036;-87
2022/07/06 00:28:14;;;;;;;6.45;0.60;;;14.60;99.90;;;;;;5122882;28;20047;-87
2022/07/06 00:30:40;;;;;;;4.90;0.70;;;15.40;99.90;;;;;;5112371;28;20146;-87
2022/07/06 00:33:06;;;;;;;2.78;0.57;;;15.10;99.90;;;;;;5129643;28;20028;-86
2022/07/06 00:35:32;;;;;;;4.93;0.85;;;14.30;99.90;;;;;;5096358;28;20050;-86
2022/07/06 00:37:58;;;;;;;2.13;0.50;;;14.60;99.90;;;;;;5111801;28;20053;-87
2022/07/06 00:40:24;;;;;;;1.85;0.30;;;15.00;99.90;;;;;;5093710;28;20060;-87
2022/07/06 00:42:50;;;;;;;3.97;0.50;;;14.50;99.90;;;;;;5123714;28;20085;-86
2022/07/06 00:45:19;;;;;;;1.90;0.40;;;14.80;99.90;;;;;;5096785;28;20040;-86
2022/07/06 00:47:45;;;;;;;4.20;0.57;;;15.20;99.90;;;;;;5071326;28;20083;-86
2022/07/06 00:50:14;;;;;;;0.88;0.40;;;14.70;99.90;;;;;;5087281;28;20040;-86
2022/07/06 00:52:41;;;;;;;3.80;0.43;;;14.30;99.90;;;;;;5104342;28;20039;-86
2022/07/06 00:55:08;;;;;;;6.05;1.00;;;15.10;99.90;;;;;;5087576;28;20035;-86
2022/07/06 00:57:35;;;;;;;3.15;0.57;;;14.30;99.90;;;;;;5087604;28;20419;-86
2022/07/06 01:00:06;;;;;;;2.38;0.73;;;14.30;99.90;;;;;;5087369;28;20371;-86
2022/07/06 01:02:33;;;;;;;7.25;0.77;;;14.30;99.90;;;;;;5105160;28;20612;-86
2022/07/06 01:04:58;;;;;;;2.35;0.50;;;15.00;99.90;;;;;;5071302;28;20043;-86
2022/07/06 01:07:25;;;;;;;3.65;0.43;;;14.30;99.90;;;;;;5073603;28;20062;-87
2022/07/06 01:09:50;;;;;;;2.90;0.60;;;14.60;99.90;;;;;;5090056;28;20039;-86
2022/07/06 01:12:17;;;;;;;1.52;0.30;;;14.30;99.90;;;;;;5090142;28;20051;-86
2022/07/06 01:14:44;;;;;;;6.63;0.60;;;14.30;99.90;;;;;;5089922;28;20093;-86
2022/07/06 01:17:10;;;;;;;1.60;0.40;;;14.30;99.90;;;;;;5107575;28;20054;-87
2022/07/06 01:19:36;;;;;;;2.20;0.40;;;14.30;99.90;;;;;;5092268;28;20062;-87
2022/07/06 01:22:02;;;;;;;4.93;1.25;;;14.40;99.90;;;;;;5094873;28;20059;-86
2022/07/06 01:24:28;;;;;;;2.05;0.60;;;14.30;99.90;;;;;;5075844;28;20051;-86
2022/07/06 01:26:53;;;;;;;2.03;0.45;;;14.30;99.90;;;;;;5093805;28;20265;-86
2022/07/06 01:29:19;;;;;;;3.70;0.47;;;15.10;99.90;;;;;;5092075;28;20460;-86
2022/07/06 01:31:49;;;;;;;6.05;1.00;;;14.70;99.90;;;;;;5091600;28;20034;-85
2022/07/06 01:34:18;;;;;;;4.25;0.68;;;14.80;99.90;;;;;;5090392;28;20069;-87
2022/07/06 01:36:44;;;;;;;2.70;0.68;;;14.60;99.90;;;;;;5090951;28;20036;-87
2022/07/06 01:39:10;;;;;;;5.15;0.95;;;14.60;99.90;;;;;;5090636;28;20055;-87
2022/07/06 01:41:37;;;;;;;1.65;0.63;;;14.30;99.90;;;;;;5090933;28;20047;-86
2022/07/06 01:44:04;;;;;;;2.42;0.70;;;14.20;99.90;;;;;;5090616;28;20043;-87
2022/07/06 01:46:29;;;;;;;5.88;0.95;;;14.20;99.90;;;;;;5106818;28;20050;-86
2022/07/06 01:48:56;;;;;;;3.03;0.52;;;14.20;99.90;;;;;;5073408;28;20039;-86
2022/07/06 01:51:21;;;;;;;8.82;0.43;;;14.20;99.90;;;;;;5091346;28;20047;-87
2022/07/06 01:53:48;;;;;;;2.88;0.40;;;14.20;99.90;;;;;;5091041;28;20404;-87
2022/07/06 01:56:14;;;;;;;2.78;0.60;;;14.20;99.90;;;;;;5073623;28;20044;-86
2022/07/06 01:58:40;;;;;;;3.75;1.10;;;14.10;99.90;;;;;;5107349;28;20043;-87
2022/07/06 02:01:10;;;;;;;2.33;0.55;;;14.10;99.90;;;;;;5107806;28;20108;-86
2022/07/06 02:03:36;;;;;;;2.25;0.35;;;14.20;99.90;;;;;;5089997;28;20043;-87
2022/07/06 02:06:03;;;;;;;7.43;0.65;;;14.20;99.90;;;;;;5072669;28;20044;-86
2022/07/06 02:08:29;;;;;;;2.35;0.45;;;14.20;99.90;;;;;;5106385;28;20105;-86
2022/07/06 02:10:55;;;;;;;2.88;0.63;;;14.20;99.90;;;;;;5072166;28;20043;-86
2022/07/06 02:13:21;;;;;;;3.72;0.60;;;14.10;99.90;;;;;;5088795;28;20066;-86
2022/07/06 02:15:46;;;;;;;10.02;0.80;;;14.10;99.90;;;;;;5071289;28;20051;-86
2022/07/06 02:18:12;;;;;;;3.00;0.60;;;14.10;99.90;;;;;;5106089;28;20131;-86
2022/07/06 02:20:37;;;;;;;3.38;0.50;;;14.00;99.90;;;;;;5088855;28;20043;-86
2022/07/06 02:23:03;;;;;;;1.38;0.30;;;15.30;99.90;;;;;;5088715;28;20047;-86
2022/07/06 02:25:29;;;;;;;4.80;0.82;;;14.00;99.90;;;;;;5089657;28;20051;-86
2022/07/06 02:27:55;;;;;;;2.25;0.45;;;13.90;99.90;;;;;;5088344;28;20046;-86
2022/07/06 02:30:21;;;;;;;3.55;0.57;;;13.80;99.90;;;;;;5072263;28;20047;-86
2022/07/06 02:32:46;;;;;;;1.92;0.30;;;13.70;99.90;;;;;;5106610;28;20043;-86
2022/07/06 02:35:12;;;;;;;2.22;0.40;;;13.70;99.90;;;;;;5072131;28;20079;-86
2022/07/06 02:37:38;;;;;;;1.60;0.60;;;13.70;99.90;;;;;;5089097;28;20451;-86
2022/07/06 02:40:05;;;;;;;4.25;0.55;;;13.60;99.90;;;;;;5105801;28;20107;-86
2022/07/06 02:42:31;;;;;;;4.50;0.70;;;13.60;99.90;;;;;;5088581;28;20059;-86
2022/07/06 02:44:56;;;;;;;7.43;0.55;;;13.50;99.90;;;;;;5088925;28;20118;-86
2022/07/06 02:47:22;;;;;;;6.93;0.75;;;13.50;99.90;;;;;;5105230;28;20546;-86
2022/07/06 02:49:48;;;;;;;6.03;0.73;;;14.10;99.90;;;;;;5088078;28;20044;-86
2022/07/06 02:52:14;;;;;;;2.47;0.50;;;13.40;99.90;;;;;;5087879;28;20078;-86
2022/07/06 02:54:39;;;;;;;1.73;0.30;;;14.40;99.90;;;;;;5071322;28;20043;-86
2022/07/06 02:57:05;;;;;;;3.13;0.70;;;14.50;99.90;;;;;;5088427;28;20055;-86
2022/07/06 02:59:31;;;;;;;2.45;0.45;;;13.30;99.90;;;;;;5105102;28;20126;-86
2022/07/06 03:01:56;;;;;;;3.33;0.40;;;14.20;99.90;;;;;;5105404;28;20066;-85
2022/07/06 03:04:22;;;;;;;5.43;0.90;;;12.50;99.90;;;;;;5071401;28;20068;-86
2022/07/06 03:06:48;;;;;;;3.85;0.68;;;13.40;99.90;;;;;;5054432;28;20069;-86
2022/07/06 03:09:13;;;;;;;2.25;0.60;;;13.10;99.90;;;;;;5088616;28;20035;-86
2022/07/06 03:11:39;;;;;;;2.05;0.40;;;13.10;99.90;;;;;;5106842;28;20054;-86
2022/07/06 03:14:06;;;;;;;3.97;0.80;;;13.40;99.90;;;;;;5105300;28;20039;-86
2022/07/06 03:16:32;;;;;;;2.03;0.68;;;13.00;99.90;;;;;;5088696;28;20032;-87
2022/07/06 03:18:58;;;;;;;5.40;0.60;;;13.00;99.90;;;;;;5072754;28;20444;-87
2022/07/06 03:21:24;;;;;;;1.98;0.35;;;13.00;99.90;;;;;;5087637;28;20039;-86
2022/07/06 03:23:50;;;;;;;2.03;0.47;;;12.90;99.90;;;;;;5121411;28;20051;-86
2022/07/06 03:26:16;;;;;;;2.47;0.55;;;12.90;99.90;;;;;;5106814;28;20066;-86
2022/07/06 03:28:42;;;;;;;5.38;0.77;;;13.20;99.90;;;;;;5058337;28;20036;-86
2022/07/06 03:31:07;;;;;;;4.45;0.68;;;13.20;99.90;;;;;;5072585;28;20054;-86
2022/07/06 03:33:33;;;;;;;3.80;0.60;;;12.90;99.90;;;;;;5071774;28;20147;-86
2022/07/06 03:35:59;;;;;;;7.22;1.00;;;13.00;99.90;;;;;;5054644;28;20056;-86
2022/07/06 03:38:24;;;;;;;1.05;0.68;;;12.80;99.90;;;;;;5104968;28;20394;-85
2022/07/06 03:40:50;;;;;;;4.32;0.60;;;13.50;99.90;;;;;;5087695;28;20047;-86
2022/07/06 03:43:17;;;;;;;2.15;1.02;;;13.30;99.90;;;;;;5053629;28;20083;-86
2022/07/06 03:45:43;;;;;;;5.72;0.75;;;13.20;99.90;;;;;;5070519;28;20079;-86
2022/07/06 03:48:08;;;;;;;9.75;0.98;;;12.80;99.90;;;;;;5053821;28;20082;-86
2022/07/06 03:50:34;;;;;;;3.42;0.70;;;12.80;99.90;;;;;;5104728;28;20079;-86
2022/07/06 03:53:01;;;;;;;7.07;0.88;;;12.80;99.90;;;;;;5104392;28;20142;-86
2022/07/06 03:55:27;;;;;;;3.75;0.55;;;12.80;99.90;;;;;;5087962;28;20089;-86
2022/07/06 03:57:52;;;;;;;1.65;0.40;;;12.80;99.90;;;;;;5087238;28;20122;-86
2022/07/06 04:00:18;;;;;;;4.20;0.70;;;13.70;99.90;;;;;;5087460;28;20101;-86
2022/07/06 04:02:44;;;;;;;5.55;1.00;;;13.20;99.90;;;;;;5070218;28;20526;-86
2022/07/06 04:05:09;;;;;;;3.33;0.38;;;12.70;99.90;;;;;;5087316;28;20051;-86
2022/07/06 04:07:35;;;;;;;5.05;0.63;;;12.80;99.90;;;;;;5104277;28;20146;-83
2022/07/06 04:10:01;;;;;;;3.78;0.68;;;12.80;99.90;;;;;;5070420;28;20496;-85
2022/07/06 04:12:26;;;;;;;5.35;0.77;;;12.80;99.90;;;;;;5087685;28;20082;-86
2022/07/06 04:14:55;;;;;;;2.75;0.30;;;13.40;99.90;;;;;;5086818;28;20040;-86
2022/07/06 04:20:05;;;;;;;2.92;0.40;;;13.40;99.90;;;;;;5089197;28;20047;-85
2022/07/06 04:22:31;;;;;;;2.65;0.52;;;13.00;99.90;;;;;;5053404;28;20757;-86
2022/07/06 04:24:57;;;;;;;2.53;0.40;;;13.10;99.90;;;;;;5070793;28;20040;-86
2022/07/06 04:27:22;;;;;;;7.63;1.05;;;13.10;99.90;;;;;;5070079;28;20486;-86
2022/07/06 04:29:48;;;;;;;2.15;0.30;;;13.10;99.90;;;;;;5103831;28;20070;-87
2022/07/06 04:32:14;;;;;;;1.30;0.20;;;13.60;99.90;;;;;;5086936;28;20047;-86
2022/07/06 04:34:39;;;;;;;2.13;0.88;;;13.20;99.90;;;;;;5069994;28;20082;-86
2022/07/06 04:37:05;;;;;;;5.20;0.60;;;13.30;99.90;;;;;;5086979;28;20036;-87
2022/07/06 04:39:31;;;;;;;1.55;0.40;;;14.00;99.90;;;;;;5073073;28;20695;-86
2022/07/06 04:41:58;;;;;;;5.03;0.40;;;13.30;99.90;;;;;;5117770;28;20036;-88
2022/07/06 04:44:24;;;;;;;3.20;0.60;;;13.20;99.90;;;;;;5098744;28;20066;-87
2022/07/06 04:46:50;;;;;;;4.45;0.40;;;13.20;99.90;;;;;;5082308;28;20383;-86
2022/07/06 04:49:16;;;;;;;5.20;0.88;;;13.80;99.90;;;;;;5083306;28;20051;-88
2022/07/06 04:51:42;;;;;;;1.63;0.28;;;13.60;99.90;;;;;;5065606;28;20074;-88
2022/07/06 04:54:14;;;;;;;0.52;0.20;;;13.20;99.90;;;;;;5099611;28;20035;-87
2022/07/06 04:56:41;;;;;;;1.60;0.30;;;13.60;99.90;;;;;;5099604;28;20052;-88
2022/07/06 04:59:08;;;;;;;1.95;0.28;;;13.30;99.90;;;;;;5082815;28;20047;-89
2022/07/06 05:01:34;;;;;;;4.03;0.40;;;13.30;99.90;;;;;;5066297;28;20044;-88
2022/07/06 05:04:00;;;;;;;3.97;0.38;;;13.50;99.90;;;;;;5116759;28;20062;-89
2022/07/06 05:06:26;;;;;;;0.88;0.13;;;14.20;99.90;;;;;;5082745;28;20636;-92
2022/07/06 05:08:51;;;;;;;5.75;0.40;;;13.50;99.90;;;;;;5057900;28;20470;-89
2022/07/06 05:11:17;;;;;;;2.83;0.70;;;13.50;99.90;;;;;;5076433;28;20035;-88
2022/07/06 05:13:43;;;;;;;3.40;0.30;;;13.60;99.90;;;;;;5094366;28;20090;-88
2022/07/06 05:16:09;;;;;;;2.10;0.30;;;13.70;99.90;;;;;;5074442;28;20040;-87
2022/07/06 05:18:35;;;;;;;2.08;0.20;;;13.80;99.90;;;;;;5090028;28;20483;-88
2022/07/06 05:21:00;;;;;;;4.18;0.50;;;13.90;99.90;;;;;;5090424;28;20087;-87
2022/07/06 05:23:28;;;;;;;1.65;0.35;;;14.00;99.90;;;;;;5073079;28;20051;-89
2022/07/06 05:25:53;;;;;;;3.13;0.13;;;14.00;99.90;;;;;;5073233;28;20031;-87
2022/07/06 05:28:19;;;;;;;0.77;0.20;;;13.60;99.90;;;;;;5073253;28;20099;-86
2022/07/06 05:30:45;;;;;;;3.47;0.30;;;14.30;99.90;;;;;;5089265;28;20405;-85
2022/07/06 05:33:11;;;;;;;5.65;0.50;;;14.40;99.90;;;;;;5090439;28;20051;-92
2022/07/06 05:35:36;;;;;;;1.48;0.30;;;14.50;99.90;;;;;;5056877;28;20054;-91
2022/07/06 05:38:02;;;;;;;2.90;0.30;;;14.60;99.90;;;;;;5057415;28;20048;-93
2022/07/06 05:40:30;;;;;;;3.10;0.28;;;14.80;99.90;;;;;;5090903;28;20506;-91
2022/07/06 05:42:56;;;;;;;2.58;0.30;;;15.30;99.90;;;;;;5073687;28;20047;-92
2022/07/06 05:45:22;;;;;;;2.05;0.35;;;14.90;99.90;;;;;;5057977;28;20062;-91
2022/07/06 05:50:33;;;;;;;1.73;0.40;;;15.10;99.90;;;;;;5078631;28;20066;-88
2022/07/06 05:53:00;;;;;;;6.85;0.60;;;15.00;99.90;;;;;;5090161;28;20475;-91
2022/07/06 05:55:29;;;;;;;3.50;0.55;;;15.00;99.90;;;;;;5089460;28;20057;-89
2022/07/06 05:57:55;;;;;;;3.65;0.93;;;14.90;99.90;;;;;;5075188;28;20112;-85
2022/07/06 06:00:25;;;;;;;6.13;0.68;;;15.00;99.90;;;;;;5088844;28;20054;-86
2022/07/06 06:02:51;;;;;;;4.47;1.20;;;15.00;99.90;;;;;;5089663;28;20048;-87
2022/07/06 06:05:17;;;;;;;3.50;0.40;;;15.00;99.90;;;;;;5087876;28;20075;-87
2022/07/06 06:07:44;;;;;;;3.78;0.93;;;15.40;99.90;;;;;;5106060;28;20498;-87
2022/07/06 06:10:12;;;;;;;1.70;0.30;;;15.80;99.90;;;;;;5072151;28;20062;-87
2022/07/06 06:12:39;;;;;;;7.68;0.68;;;16.00;99.90;;;;;;5088433;28;20043;-86
2022/07/06 06:15:06;;;;;;;3.75;0.50;;;15.60;99.90;;;;;;5089028;28;20172;-86
2022/07/06 06:17:32;;;;;;;3.83;0.52;;;15.40;99.90;;;;;;5088225;28;20498;-86
2022/07/06 06:19:59;;;;;;;2.40;0.40;;;15.60;99.90;;;;;;5089565;28;20078;-87
2022/07/06 06:22:25;;;;;;;5.82;0.57;;;15.60;99.90;;;;;;5087447;28;20177;-86
2022/07/06 06:24:51;;;;;;;4.40;0.22;;;15.60;99.90;;;;;;5089396;28;20056;-87
2022/07/06 06:27:17;;;;;;;2.72;0.45;;;15.70;99.90;;;;;;5088092;28;20044;-86
2022/07/06 06:29:44;;;;;;;5.15;0.50;;;15.80;99.90;;;;;;5105855;28;20051;-83
2022/07/06 06:32:11;;;;;;;2.35;0.30;;;15.80;99.90;;;;;;5072359;28;20505;-84
2022/07/06 06:34:38;;;;;;;4.53;0.68;;;15.70;99.90;;;;;;5088384;28;20048;-84
2022/07/06 06:37:04;;;;;;;1.50;0.30;;;15.70;99.90;;;;;;5089050;28;20096;-86
2022/07/06 06:39:30;;;;;;;2.13;0.60;;;15.60;99.90;;;;;;5087178;28;20044;-87
2022/07/06 06:41:55;;;;;;;5.32;0.32;;;15.60;99.90;;;;;;5088909;28;20048;-87
2022/07/06 06:44:24;;;;;;;3.72;0.30;;;15.60;99.90;;;;;;5104730;28;20135;-86
2022/07/06 06:46:50;;;;;;;4.38;0.40;;;15.60;99.90;;;;;;5088821;28;20044;-86
2022/07/06 06:49:16;;;;;;;4.57;0.70;;;15.70;99.90;;;;;;5088251;28;20102;-86
2022/07/06 06:51:42;;;;;;;3.35;0.73;;;15.90;99.90;;;;;;5087728;28;20080;-86
2022/07/06 06:54:08;;;;;;;4.93;0.70;;;16.20;99.90;;;;;;5105621;28;20043;-86
2022/07/06 06:56:33;;;;;;;1.25;0.38;;;16.50;99.90;;;;;;5069973;28;20035;-87
2022/07/06 06:59:01;;;;;;;1.63;0.20;;;16.80;99.90;;;;;;5106725;28;20047;-86
2022/07/06 07:01:27;;;;;;;2.50;0.30;;;16.90;99.90;;;;;;5087541;28;20085;-87
2022/07/06 07:03:54;;;;;;;1.33;0.28;;;17.00;99.90;;;;;;5110980;28;20043;-86
2022/07/06 07:06:20;;;;;;;2.83;0.45;;;17.10;99.90;;;;;;5075153;28;20066;-86
2022/07/06 07:08:46;;;;;;;7.68;0.50;;;17.30;99.90;;;;;;5089575;28;20043;-87
2022/07/06 07:11:12;;;;;;;3.83;0.30;;;17.40;99.90;;;;;;5104475;28;20130;-86
2022/07/06 07:13:38;;;;;;;4.43;1.20;;;17.60;99.90;;;;;;5087172;28;20040;-87
2022/07/06 07:16:04;;;;;;;1.77;0.30;;;17.60;99.90;;;;;;5071444;28;20035;-86
2022/07/06 07:18:29;;;;;;;6.75;0.52;;;17.70;99.90;;;;;;5087384;28;20173;-87
2022/07/06 07:20:55;;;;;;;3.00;0.93;;;17.70;99.90;;;;;;5087541;28;20119;-87
2022/07/06 07:23:21;;;;;;;3.45;0.30;;;17.80;99.90;;;;;;5087092;28;20052;-87
2022/07/06 07:25:47;;;;;;;7.35;0.68;;;17.70;99.90;;;;;;5087687;28;20044;-88
2022/07/06 07:28:13;;;;;;;5.13;0.25;;;17.70;99.90;;;;;;5087918;28;20494;-87
2022/07/06 07:30:38;;;;;;;3.47;0.85;;;17.70;99.90;;;;;;5086800;28;20087;-87
2022/07/06 07:33:04;;;;;;;5.35;0.50;;;17.60;99.90;;;;;;5053731;28;20402;-85
2022/07/06 07:35:30;;;;;;;5.97;0.30;;;17.80;99.90;;;;;;5070074;28;20147;-87
2022/07/06 07:37:55;;;;;;;2.78;0.22;;;17.30;99.90;;;;;;5054310;28;20399;-84
2022/07/06 07:40:21;;;;;;;2.38;0.28;;;17.30;99.90;;;;;;5069834;28;20449;-87
2022/07/06 07:42:47;;;;;;;3.15;0.40;;;17.30;99.90;;;;;;5070087;28;20717;-86
2022/07/06 07:45:13;;;;;;;3.13;0.40;;;17.60;99.90;;;;;;5070897;28;20172;-86
2022/07/06 07:47:39;;;;;;;1.20;0.20;;;17.90;99.90;;;;;;5103230;28;20047;-85
2022/07/06 07:50:06;;;;;;;1.90;0.40;;;18.10;99.90;;;;;;5070974;28;20404;-85
2022/07/06 07:52:32;;;;;;;3.05;0.40;;;18.10;99.90;;;;;;5086129;28;20126;-86
2022/07/06 07:54:58;;;;;;;2.15;0.35;;;18.10;99.90;;;;;;5070199;28;20511;-88
2022/07/06 07:57:24;;;;;;;3.72;0.50;;;18.20;99.90;;;;;;5086771;28;20047;-86
2022/07/06 07:59:50;;;;;;;2.55;0.22;;;18.40;99.90;;;;;;5071471;28;20090;-87
2022/07/06 08:02:16;;;;;;;3.88;0.30;;;18.60;99.90;;;;;;5089403;28;20044;-86
2022/07/06 08:04:41;;;;;;;2.58;0.40;;;18.80;99.90;;;;;;5086887;28;20406;-88
2022/07/06 08:07:07;;;;;;;2.05;0.25;;;18.90;99.90;;;;;;5072156;28;20054;-87
2022/07/06 08:09:33;;;;;;;2.03;0.30;;;19.10;99.90;;;;;;5070839;28;20055;-87
2022/07/06 08:11:59;;;;;;;7.40;0.52;;;19.20;99.90;;;;;;5105873;28;20054;-87
2022/07/06 08:14:25;;;;;;;3.90;0.57;;;19.30;99.90;;;;;;5088191;28;20545;-87
2022/07/06 08:16:51;;;;;;;2.40;0.20;;;19.20;99.90;;;;;;5092353;28;20048;-87
2022/07/06 08:19:17;;;;;;;1.15;0.15;;;19.20;99.90;;;;;;5091487;28;20104;-86
2022/07/06 08:21:43;;;;;;;2.00;0.40;;;19.20;99.90;;;;;;5094186;27;20593;-88
2022/07/06 08:24:10;;;;;;;1.65;0.30;;;19.20;99.90;;;;;;5097100;27;20043;-87
2022/07/06 08:26:36;;;;;;;3.65;0.20;;;19.20;99.90;;;;;;5093499;27;20042;-88
2022/07/06 08:29:02;;;;;;;2.03;0.20;;;19.20;99.90;;;;;;5095630;27;20043;-85
2022/07/06 08:31:28;;;;;;;0.65;0.10;;;19.30;99.90;;;;;;5076770;27;20096;-88
2022/07/06 08:33:55;;;;;;;1.85;0.20;;;19.40;99.90;;;;;;5061040;27;20043;-89
2022/07/06 08:36:21;;;;;;;1.50;0.17;;;19.60;99.90;;;;;;5111449;27;20540;-88
2022/07/06 08:38:48;;;;;;;0.52;0.10;;;19.70;99.90;;;;;;5110889;27;20122;-89
2022/07/06 08:41:19;;;;;;;0.63;0.20;;;19.80;99.90;;;;;;5111850;27;20483;-86
2022/07/06 08:43:45;;;;;;;3.78;0.38;;;19.90;98.90;;;;;;5093586;27;20043;-85
2022/07/06 08:46:14;;;;;;;2.55;0.22;;;20.00;98.70;;;;;;5095376;27;20179;-85
2022/07/06 08:48:40;;;;;;;0.73;0.30;;;20.00;98.40;;;;;;5129501;27;20099;-86
2022/07/06 08:51:06;;;;;;;0.70;0.30;;;20.00;97.90;;;;;;5077893;27;20043;-86
2022/07/06 08:53:33;;;;;;;1.52;0.20;;;20.00;97.60;;;;;;5094427;27;20047;-86
2022/07/06 08:55:59;;;;;;;1.60;0.13;;;20.00;97.50;;;;;;5094380;27;20515;-84
2022/07/06 08:58:27;;;;;;;1.15;0.20;;;20.10;97.60;;;;;;5114106;27;20393;-87
2022/07/06 09:01:00;;;;;;;1.38;0.25;;;20.10;97.10;;;;;;5095876;27;20081;-88
2022/07/06 09:03:27;;;;;;;2.42;0.20;;;20.20;96.90;;;;;;5115448;27;20413;-86
2022/07/06 09:05:58;;;;;;;2.65;0.15;;;20.20;97.10;;;;;;5095464;27;20039;-87
2022/07/06 09:08:26;;;;;;;1.92;0.40;;;20.30;97.10;;;;;;5097051;27;20032;-88
2022/07/06 09:10:53;;;;;;;3.30;0.30;;;20.30;97.60;;;;;;5094814;27;20042;-87
2022/07/06 09:13:19;;;;;;;1.58;0.30;;;20.20;97.70;;;;;;5110108;27;20039;-86
2022/07/06 09:15:44;;;;;;;2.17;0.30;;;20.20;98.20;;;;;;5061794;27;20389;-87
2022/07/06 09:18:10;;;;;;;2.85;0.15;;;20.10;98.40;;;;;;5092698;27;20528;-87
2022/07/06 09:20:36;;;;;;;1.30;0.25;;;19.90;99.00;;;;;;5096703;27;20056;-87
2022/07/06 09:23:05;;;;;;;5.28;0.30;;;19.90;99.90;;;;;;5094265;27;20143;-86
2022/07/06 09:25:32;;;;;;;6.28;0.20;;;20.10;99.90;;;;;;5095397;27;20083;-87
2022/07/06 09:27:58;;;;;;;2.50;0.20;;;20.00;99.70;;;;;;5078477;27;20439;-86
2022/07/06 09:30:26;;;;;;;2.55;0.30;;;20.00;99.90;;;;;;5077533;27;20071;-86
2022/07/06 09:32:57;;;;;;;2.08;0.30;;;20.10;99.90;;;;;;5114332;27;20054;-86
2022/07/06 09:35:23;;;;;;;2.28;0.30;;;20.40;99.50;;;;;;5093478;27;20085;-86
2022/07/06 09:38:11;;;;;;;4.07;0.30;;;20.80;99.80;;;;;;5098025;27;20047;-87
2022/07/06 09:40:40;;;;;;;0.60;0.10;;;20.80;97.90;;;;;;5097031;27;20494;-86
2022/07/06 09:43:14;;;;;;;2.55;0.30;;;20.80;98.90;;;;;;5114222;27;20296;-86
2022/07/06 09:45:43;;;;;;;2.78;0.55;;;20.70;97.90;;;;;;5138464;27;20069;-87
2022/07/06 09:48:21;;;;;;;2.42;0.35;;;20.70;98.60;;;;;;5098640;27;20049;-88
2022/07/06 09:50:52;;;;;;;0.65;0.10;;;20.90;98.50;;;;;;5082409;27;20046;-87
2022/07/06 09:53:19;;;;;;;0.63;0.10;;;21.20;97.50;;;;;;5081265;27;20698;-87
2022/07/06 09:55:50;;;;;;;1.20;0.20;;;21.30;96.90;;;;;;5080841;27;20066;-87
2022/07/06 09:58:16;;;;;;;0.80;0.10;;;21.20;96.40;;;;;;5064232;27;20092;-87
2022/07/06 10:00:44;;;;;;;1.50;0.38;;;21.10;96.10;;;;;;5095700;27;20051;-88
2022/07/06 10:03:10;;;;;;;1.70;0.28;;;20.90;96.20;;;;;;5115479;27;20103;-87
2022/07/06 10:05:41;;;;;;;1.15;0.22;;;20.80;96.60;;;;;;5113205;27;20585;-87
2022/07/06 10:08:09;;;;;;;5.07;0.30;;;20.60;96.20;;;;;;5094941;27;20047;-87
2022/07/06 10:10:36;;;;;;;0.65;0.20;;;20.50;96.40;;;;;;5094097;27;20043;-87
2022/07/06 10:13:09;;;;;;;1.55;0.25;;;20.50;96.90;;;;;;5094113;27;20069;-87
2022/07/06 10:15:39;;;;;;;1.33;0.17;;;20.50;96.50;;;;;;5078772;27;20035;-87
2022/07/06 10:18:10;;;;;;;4.28;0.43;;;20.60;95.70;;;;;;5110074;27;20039;-87
2022/07/06 10:20:38;;;;;;;1.67;0.30;;;20.70;96.10;;;;;;5094525;27;20035;-87
2022/07/06 10:23:07;;;;;;;2.78;0.30;;;20.90;96.00;;;;;;5107261;28;20063;-87
2022/07/06 10:25:33;;;;;;;2.05;0.30;;;21.00;96.50;;;;;;5091178;28;20077;-87
2022/07/06 10:28:00;;;;;;;10.70;0.68;;;21.20;96.70;;;;;;5091086;28;20051;-87
2022/07/06 10:30:30;;;;;;;1.75;0.22;;;21.60;96.90;;;;;;5107595;28;20129;-87
2022/07/06 10:33:00;;;;;;;2.88;0.50;;;21.50;96.50;;;;;;5108089;28;20051;-87
2022/07/06 10:35:26;;;;;;;2.67;0.63;;;21.80;95.80;;;;;;5079572;28;20048;-88
2022/07/06 10:38:05;;;;;;;10.18;1.08;;;21.90;94.40;;;;;;5069774;28;20573;-87
2022/07/06 10:43:20;;;;;;;19.23;2.78;;;22.00;91.10;;;;;;5114298;28;20074;-87
2022/07/06 10:45:45;;;;;;;5.38;0.73;;;22.10;90.70;;;;;;5078401;28;20043;-87
2022/07/06 10:48:11;;;;;;;3.92;0.63;;;22.10;90.70;;;;;;5111793;28;20131;-87
2022/07/06 10:50:45;;;;;;;1.40;0.30;;;22.40;88.90;;;;;;5129706;28;20036;-87
2022/07/06 10:53:15;;;;;;;2.92;0.30;;;22.40;85.90;;;;;;5128484;28;20035;-87
2022/07/06 10:55:47;;;;;;;3.15;0.40;;;22.40;82.20;;;;;;5107706;28;20035;-88
2022/07/06 10:58:14;;;;;;;2.63;0.35;;;22.30;83.40;;;;;;5097824;28;20050;-87
2022/07/06 11:00:56;;;;;;;2.03;0.28;;;22.20;83.50;;;;;;5076554;28;20036;-87
2022/07/06 11:03:37;;;;;;;4.75;0.60;;;22.10;79.70;;;;;;5095985;28;20468;-88
2022/07/06 11:06:08;;;;;;;1.65;0.40;;;21.90;81.00;;;;;;5108728;28;20131;-87
2022/07/06 11:08:57;;;;;;;2.67;0.47;;;21.70;83.30;;;;;;5094907;28;20048;-87
2022/07/06 11:11:38;;;;;;;2.13;0.50;;;21.80;82.50;;;;;;5117533;28;20054;-88
2022/07/06 11:14:21;;;;;;;3.35;0.50;;;22.00;83.40;;;;;;5110078;28;20039;-88
2022/07/06 11:16:46;;;;;;;;;;;22.20;81.00;;;;;;5090420;28;20051;-87
2022/07/06 11:19:19;;;;;;;0.85;0.20;;;22.30;74.00;;;;;;5106268;28;19931;-87
2022/07/06 11:21:57;;;;;;;4.85;0.60;;;22.60;80.90;;;;;;5105978;27;20043;-88
2022/07/06 11:24:30;;;;;;;3.72;0.43;;;22.90;76.90;;;;;;5091985;27;20054;-87
2022/07/06 11:26:58;;;;;;;1.85;0.28;;;23.00;75.30;;;;;;5090462;27;20414;-88
2022/07/06 11:29:26;;;;;;;1.63;0.28;;;22.80;74.10;;;;;;5092624;27;20126;-87
2022/07/06 11:32:00;;;;;;;1.50;0.20;;;22.90;75.70;;;;;;5092434;27;20078;-87
2022/07/06 11:34:34;;;;;;;2.90;0.30;;;22.90;73.10;;;;;;5109164;27;20108;-88
2022/07/06 11:37:07;;;;;;;1.27;0.40;;;23.00;68.70;;;;;;5092841;27;20455;-88
2022/07/06 11:39:35;;;;;;;3.33;0.30;;;23.00;68.80;;;;;;5107886;27;20494;-87
2022/07/06 11:42:03;;;;;;;1.15;0.10;;;22.90;67.40;;;;;;5109088;27;20130;-88
2022/07/06 11:44:30;;;;;;;1.77;0.30;;;22.90;66.50;;;;;;5090481;27;20090;-87
2022/07/06 11:47:01;;;;;;;2.10;0.30;;;23.00;65.00;;;;;;5074984;27;20091;-87
2022/07/06 11:49:28;;;;;;;1.08;0.22;;;23.00;63.90;;;;;;5076761;27;20047;-87
2022/07/06 11:51:54;;;;;;;3.33;0.50;;;23.00;64.50;;;;;;5074037;27;20039;-87
2022/07/06 11:54:21;;;;;;;4.35;0.60;;;23.20;65.90;;;;;;5091735;27;20245;-88
2022/07/06 11:56:47;;;;;;;3.20;0.40;;;23.30;64.90;;;;;;5106576;27;20175;-87
2022/07/06 11:59:15;;;;;;;6.03;0.45;;;23.30;64.80;;;;;;5090758;27;20218;-87
2022/07/06 12:01:43;;;;;;;1.83;0.28;;;23.30;64.90;;;;;;5106530;27;20043;-87
2022/07/06 12:04:10;;;;;;;0.75;0.20;;;23.20;65.60;;;;;;5089875;27;20088;-86
2022/07/06 12:06:36;;;;;;;1.13;0.25;;;23.20;65.70;;;;;;5090465;27;20035;-86
2022/07/06 12:09:04;;;;;;;1.65;0.38;;;23.20;65.40;;;;;;5073575;27;20116;-85
2022/07/06 12:11:31;;;;;;;2.00;0.30;;;23.10;66.30;;;;;;5090481;28;20574;-88
2022/07/06 12:14:11;;;;;;;4.13;0.35;;;23.10;66.90;;;;;;5089319;28;20058;-87
2022/07/06 12:16:37;;;;;;;1.95;0.28;;;23.10;67.00;;;;;;5090925;28;20536;-87
2022/07/06 12:19:04;;;;;;;3.33;0.38;;;23.20;65.90;;;;;;5106768;28;20452;-88
2022/07/06 12:21:31;;;;;;;1.42;0.20;;;23.20;65.90;;;;;;5090855;28;20043;-87
2022/07/06 12:23:57;;;;;;;0.73;0.13;;;23.20;65.60;;;;;;5090602;28;20134;-87
2022/07/06 12:26:28;;;;;;;2.08;0.20;;;23.10;64.50;;;;;;5106864;28;20481;-87
2022/07/06 12:29:13;;;;;;;0.52;0.30;;;23.00;64.70;;;;;;5090817;28;20665;-86
2022/07/06 12:31:49;;;;;;;1.45;0.30;;;22.90;64.60;;;;;;5106571;28;20043;-86
2022/07/06 12:34:20;;;;;;;2.75;0.40;;;22.70;64.30;;;;;;5107467;28;20051;-88
2022/07/06 12:36:57;;;;;;;2.33;0.47;;;22.60;66.20;;;;;;5091820;28;20081;-91
2022/07/06 12:39:27;;;;;;;3.28;0.60;;;22.60;66.90;;;;;;5075040;28;20134;-91
2022/07/06 12:42:02;;;;;;;2.00;0.30;;;22.90;66.90;;;;;;5092337;28;20181;-91
2022/07/06 12:44:29;;;;;;;2.13;0.30;;;23.10;64.20;;;;;;5091202;28;20046;-90
2022/07/06 12:47:07;;;;;;;0.82;0.20;;;23.00;64.40;;;;;;5092131;28;20074;-89
2022/07/06 12:49:34;;;;;;;5.45;1.10;;;22.90;63.60;;;;;;5099420;28;20047;-91
2022/07/06 12:52:02;;;;;;;3.25;0.40;;;22.70;65.20;;;;;;5068031;28;20414;-92
2022/07/06 12:54:31;;;;;;;5.72;0.60;;;22.50;65.30;;;;;;5096544;28;20045;-93
2022/07/06 12:57:01;;;;;;;1.73;0.35;;;22.20;66.30;;;;;;5092181;28;20435;-92